Time;durP1;ratioP1;P1;durP2;ratioP2;P2;SDS_P1;SDS_P2;PMS_P1;PMS_P2;Temp;Humidity;BMP_temperature;BMP_pressure;BME280_temperature;BME280_humidity;BME280_pressure;Samples;Min_cycle;Max_cycle;Signal;HPM_P1;HPM_P2
2022/05/27 00:00:41;;;;;;;;;2.00;2.00;;;;;-147.17;100.00;59696.56;5028602;28;9262;-65
2022/05/27 00:03:07;;;;;;;;;3.33;2.00;;;;;-147.17;100.00;59696.56;5028454;28;8858;-66
2022/05/27 00:05:33;;;;;;;;;3.00;3.00;;;;;-147.17;100.00;59696.56;5028126;28;9039;-67
2022/05/27 00:07:58;;;;;;;;;1.00;1.00;;;;;-147.17;100.00;59696.56;5027131;28;9225;-66
2022/05/27 00:10:23;;;;;;;;;2.00;2.00;;;;;-147.17;100.00;59696.56;5026587;28;8829;-68
2022/05/27 00:12:49;;;;;;;;;3.00;3.00;;;;;-147.17;100.00;59696.56;5029234;28;9540;-65
2022/05/27 00:15:14;;;;;;;;;4.00;4.00;;;;;-147.17;100.00;59696.56;5025806;28;9550;-65
2022/05/27 00:17:40;;;;;;;;;3.00;2.00;;;;;-147.17;100.00;59696.56;5023669;28;9664;-65
2022/05/27 00:20:06;;;;;;;;;3.00;3.00;;;;;-147.17;100.00;59696.56;5024998;28;8860;-65
2022/05/27 00:22:32;;;;;;;;;2.00;1.67;;;;;-147.17;100.00;59696.56;5032795;28;8975;-66
2022/05/27 00:24:57;;;;;;;;;2.00;2.00;;;;;-147.17;100.00;59696.56;5029580;28;9042;-66
2022/05/27 00:27:22;;;;;;;;;2.33;2.33;;;;;-147.17;100.00;59696.56;5026255;28;8837;-66
2022/05/27 00:29:48;;;;;;;;;3.00;2.00;;;;;-147.17;100.00;59696.56;5039097;28;9040;-67
2022/05/27 00:32:13;;;;;;;;;1.33;1.33;;;;;-147.17;100.00;59696.56;5028855;28;9599;-66
2022/05/27 00:34:38;;;;;;;;;5.33;4.33;;;;;-147.17;100.00;59696.56;5024700;28;8833;-65
2022/05/27 00:37:05;;;;;;;;;2.00;2.00;;;;;-147.17;100.00;59696.56;5022812;28;8897;-66
2022/05/27 00:39:31;;;;;;;;;2.00;1.00;;;;;-147.17;100.00;59696.56;5025972;28;8883;-65
2022/05/27 00:41:57;;;;;;;;;2.00;2.00;;;;;-147.17;100.00;59696.56;5027417;28;8953;-65
2022/05/27 00:44:23;;;;;;;;;2.67;2.00;;;;;-147.17;100.00;59696.56;5029535;28;9735;-67
2022/05/27 00:46:49;;;;;;;;;4.00;4.00;;;;;-147.17;100.00;59696.56;5026563;28;8837;-67
2022/05/27 00:49:20;;;;;;;;;3.00;2.67;;;;;-147.17;100.00;59696.56;5030195;28;9631;-66
2022/05/27 00:51:54;;;;;;;;;2.00;2.00;;;;;-147.17;100.00;59696.56;5025891;28;8956;-66
2022/05/27 00:54:24;;;;;;;;;2.00;2.00;;;;;-147.17;100.00;59696.56;5021092;28;9025;-67
2022/05/27 00:56:57;;;;;;;;;3.00;2.67;;;;;-147.17;100.00;59696.56;5021613;28;9284;-66
2022/05/27 00:59:30;;;;;;;;;1.67;1.67;;;;;-147.17;100.00;59696.56;5021182;28;9224;-67
2022/05/27 01:01:55;;;;;;;;;2.00;2.00;;;;;-147.17;100.00;59696.56;5028882;28;9158;-67
2022/05/27 01:04:22;;;;;;;;;2.00;2.00;;;;;-147.17;100.00;59696.56;5020505;28;9128;-66
2022/05/27 01:06:48;;;;;;;;;1.00;1.00;;;;;-147.17;100.00;59696.56;5028442;28;8813;-66
2022/05/27 01:09:14;;;;;;;;;3.33;2.00;;;;;-147.17;100.00;59696.56;5028256;28;9066;-66
2022/05/27 01:12:18;;;;;;;;;2.00;2.00;;;;;-147.17;100.00;59696.56;5022969;28;8806;-65
2022/05/27 01:15:00;;;;;;;;;3.33;3.33;;;;;-147.17;100.00;59696.56;5015006;28;9044;-66
2022/05/27 01:17:41;;;;;;;;;2.33;1.67;;;;;-147.17;100.00;59696.56;5023627;28;9431;-64
2022/05/27 01:20:50;;;;;;;;;2.00;2.00;;;;;-147.17;100.00;59696.56;5030769;28;9315;-66
2022/05/27 01:23:15;;;;;;;;;2.00;1.00;;;;;-147.17;100.00;59696.56;5023819;28;9243;-66
2022/05/27 01:25:59;;;;;;;;;3.00;3.00;;;;;-147.17;100.00;59696.56;5024460;28;8976;-65
2022/05/27 01:29:05;;;;;;;;;2.00;2.00;;;;;-147.17;100.00;59696.56;5027620;28;9278;-65
2022/05/27 01:31:45;;;;;;;;;4.00;2.00;;;;;-147.17;100.00;59696.56;5026183;28;9882;-64
2022/05/27 01:34:33;;;;;;;;;2.00;2.00;;;;;-147.17;100.00;59696.56;5018466;28;9289;-65
2022/05/27 01:37:17;;;;;;;;;2.00;1.33;;;;;-147.17;100.00;59696.56;5028201;28;9144;-64
2022/05/27 01:39:51;;;;;;;;;3.67;3.67;;;;;-147.17;100.00;59696.56;5028694;28;9299;-64
2022/05/27 01:42:23;;;;;;;;;2.00;2.00;;;;;-147.17;100.00;59696.56;5025845;28;9216;-67
2022/05/27 01:45:43;;;;;;;;;2.00;2.00;;;;;-147.17;100.00;59696.56;5030139;28;9037;-65
2022/05/27 01:48:08;;;;;;;;;2.33;2.00;;;;;-147.17;100.00;59696.56;4986748;28;9142;-67
2022/05/27 01:50:36;;;;;;;;;2.00;2.00;;;;;-147.17;100.00;59696.56;5021613;28;9319;-65
2022/05/27 01:53:15;;;;;;;;;3.00;2.00;;;;;-147.17;100.00;59696.56;5027867;28;8797;-65
2022/05/27 01:55:55;;;;;;;;;2.00;1.00;;;;;-147.17;100.00;59696.56;5026425;28;9215;-65
2022/05/27 01:58:29;;;;;;;;;3.00;2.00;;;;;-147.17;100.00;59696.56;5021404;28;9315;-64
2022/05/27 02:00:55;;;;;;;;;2.33;2.00;;;;;-147.17;100.00;59696.56;5028445;28;9199;-65
2022/05/27 02:03:30;;;;;;;;;2.33;1.00;;;;;-147.17;100.00;59696.56;5028770;28;9284;-66
2022/05/27 02:06:07;;;;;;;;;2.00;2.00;;;;;-147.17;100.00;59696.56;5030326;28;8816;-64
2022/05/27 02:08:58;;;;;;;;;3.00;3.00;;;;;-147.17;100.00;59696.56;5029408;28;9027;-63
2022/05/27 02:11:24;;;;;;;;;2.00;2.00;;;;;-147.17;100.00;59696.56;5028713;28;9168;-63
2022/05/27 02:14:00;;;;;;;;;2.33;1.67;;;;;-147.17;100.00;59696.56;5029121;28;9166;-64
2022/05/27 02:16:51;;;;;;;;;3.67;2.00;;;;;-147.17;100.00;59696.56;5012202;28;8776;-64
2022/05/27 02:19:52;;;;;;;;;1.00;1.00;;;;;-147.17;100.00;59696.56;5018155;28;9298;-65
2022/05/27 02:22:24;;;;;;;;;3.00;3.00;;;;;-147.17;100.00;59696.56;5005010;28;9211;-65
2022/05/27 02:25:05;;;;;;;;;3.00;3.00;;;;;-147.17;100.00;59696.56;5024696;28;9325;-65
2022/05/27 02:27:44;;;;;;;;;2.00;2.00;;;;;-147.17;100.00;59696.56;5027636;28;9311;-66
2022/05/27 02:30:14;;;;;;;;;2.00;1.67;;;;;-147.17;100.00;59696.56;5016481;28;9315;-69
2022/05/27 02:32:45;;;;;;;;;2.67;2.33;;;;;-147.17;100.00;59696.56;5030673;28;9221;-67
2022/05/27 02:35:31;;;;;;;;;3.00;3.00;;;;;-147.17;100.00;59696.56;5030282;28;9141;-65
2022/05/27 02:37:59;;;;;;;;;3.00;2.67;;;;;-147.17;100.00;59696.56;5028565;28;9576;-65
2022/05/27 02:40:33;;;;;;;;;1.67;1.67;;;;;-147.17;100.00;59696.56;5029804;28;9312;-65
2022/05/27 02:43:14;;;;;;;;;1.33;1.33;;;;;-147.17;100.00;59696.56;5025563;28;9265;-66
2022/05/27 02:46:00;;;;;;;;;2.33;2.33;;;;;-147.17;100.00;59696.56;5019597;28;9297;-65
2022/05/27 02:48:34;;;;;;;;;2.00;1.00;;;;;-147.17;100.00;59696.56;5026450;28;9378;-66
2022/05/27 02:51:24;;;;;;;;;4.00;3.00;;;;;-147.17;100.00;59696.56;5025070;28;9209;-66
2022/05/27 02:54:08;;;;;;;;;2.00;2.00;;;;;-147.17;100.00;59696.56;5024440;28;10003;-67
2022/05/27 02:56:43;;;;;;;;;2.00;2.00;;;;;-147.17;100.00;59696.56;5028502;28;9227;-66
2022/05/27 02:59:14;;;;;;;;;1.33;0.33;;;;;-147.17;100.00;59696.56;5025779;28;9220;-66
2022/05/27 03:01:39;;;;;;;;;4.00;3.33;;;;;-147.17;100.00;59696.56;5027337;28;9309;-67
2022/05/27 03:04:06;;;;;;;;;4.00;3.00;;;;;-147.17;100.00;59696.56;5042066;28;9415;-66
2022/05/27 03:06:45;;;;;;;;;4.00;3.00;;;;;-147.17;100.00;59696.56;5023766;28;8808;-67
2022/05/27 03:09:24;;;;;;;;;3.67;3.00;;;;;-147.17;100.00;59696.56;5027435;28;9212;-67
2022/05/27 03:12:05;;;;;;;;;3.67;3.00;;;;;-147.17;100.00;59696.56;5028361;28;9435;-67
2022/05/27 03:14:50;;;;;;;;;4.00;3.00;;;;;-147.17;100.00;59696.56;5026074;28;9291;-67
2022/05/27 03:17:53;;;;;;;;;7.00;7.00;;;;;-147.17;100.00;59696.56;5025110;28;9243;-68
2022/05/27 03:20:58;;;;;;;;;2.00;2.00;;;;;-147.17;100.00;59696.56;5024511;28;9568;-67
2022/05/27 03:23:42;;;;;;;;;3.67;3.67;;;;;-147.17;100.00;59696.56;5027327;28;10074;-66
2022/05/27 03:26:21;;;;;;;;;2.33;2.33;;;;;-147.17;100.00;59696.56;5033331;28;9385;-66
2022/05/27 03:29:19;;;;;;;;;3.00;3.00;;;;;-147.17;100.00;59696.56;5033362;28;10139;-67
2022/05/27 03:32:05;;;;;;;;;3.00;2.00;;;;;-147.17;100.00;59696.56;5030243;28;9138;-66
2022/05/27 03:34:38;;;;;;;;;3.00;2.00;;;;;-147.17;100.00;59696.56;5012843;28;9289;-67
2022/05/27 03:37:11;;;;;;;;;4.00;4.00;;;;;-147.17;100.00;59696.56;5027483;28;9443;-67
2022/05/27 03:39:46;;;;;;;;;3.00;3.00;;;;;-147.17;100.00;59696.56;5028932;28;9291;-67
2022/05/27 03:42:11;;;;;;;;;3.00;3.00;;;;;-147.17;100.00;59696.56;5023015;28;9224;-66
2022/05/27 03:44:37;;;;;;;;;5.00;3.00;;;;;-147.17;100.00;59696.56;5028785;28;9121;-67
2022/05/27 03:47:03;;;;;;;;;3.33;3.33;;;;;-147.17;100.00;59696.56;5027547;28;11537;-67
2022/05/27 03:49:29;;;;;;;;;4.00;4.00;;;;;-147.17;100.00;59696.56;5029620;28;8844;-67
2022/05/27 03:52:13;;;;;;;;;3.00;3.00;;;;;-147.17;100.00;59696.56;5021209;28;8808;-67
2022/05/27 03:54:38;;;;;;;;;4.00;4.00;;;;;-147.17;100.00;59696.56;5025516;28;8823;-67
2022/05/27 03:57:04;;;;;;;;;5.00;5.00;;;;;-147.17;100.00;59696.56;5035435;28;9375;-67
2022/05/27 03:59:29;;;;;;;;;5.00;4.00;;;;;-147.17;100.00;59696.56;5010328;28;8851;-67
2022/05/27 04:01:56;;;;;;;;;7.00;5.33;;;;;-147.17;100.00;59696.56;5029788;28;8814;-67
2022/05/27 04:04:26;;;;;;;;;4.00;4.00;;;;;-147.17;100.00;59696.56;5031201;28;10122;-66
2022/05/27 04:06:51;;;;;;;;;5.33;5.00;;;;;-147.17;100.00;59696.56;5032024;28;9354;-67
2022/05/27 04:09:19;;;;;;;;;6.67;5.33;;;;;-147.17;100.00;59696.56;5025374;28;9398;-67
2022/05/27 04:11:45;;;;;;;;;4.67;4.67;;;;;-147.17;100.00;59696.56;5026795;28;9787;-66
2022/05/27 04:14:11;;;;;;;;;5.00;5.00;;;;;-147.17;100.00;59696.56;5030913;28;9367;-67
2022/05/27 04:16:37;;;;;;;;;10.67;9.00;;;;;-147.17;100.00;59696.56;5029424;28;9424;-67
2022/05/27 04:19:03;;;;;;;;;6.67;6.33;;;;;-147.17;100.00;59696.56;5030293;28;9507;-67
2022/05/27 04:21:29;;;;;;;;;7.67;7.00;;;;;-147.17;100.00;59696.56;5032357;28;9442;-67
2022/05/27 04:23:55;;;;;;;;;8.00;7.33;;;;;-147.17;100.00;59696.56;5031078;28;9528;-67
2022/05/27 04:26:21;;;;;;;;;5.00;5.00;;;;;-147.17;100.00;59696.56;5031824;28;9563;-67
2022/05/27 04:28:46;;;;;;;;;5.00;5.00;;;;;-147.17;100.00;59696.56;5028153;28;8836;-67
2022/05/27 04:31:12;;;;;;;;;8.25;7.00;;;;;-147.17;100.00;59696.56;5030823;28;9371;-68
2022/05/27 04:33:38;;;;;;;;;8.00;8.00;;;;;-147.17;100.00;59696.56;5031197;28;8865;-67
2022/05/27 04:36:04;;;;;;;;;8.67;8.67;;;;;-147.17;100.00;59696.56;5030372;28;8821;-67
2022/05/27 04:38:29;;;;;;;;;9.33;7.00;;;;;-147.17;100.00;59696.56;5033553;28;9563;-67
2022/05/27 04:40:55;;;;;;;;;11.67;10.33;;;;;-147.17;100.00;59696.56;5029751;28;8936;-67
2022/05/27 04:43:21;;;;;;;;;4.33;3.00;;;;;-147.17;100.00;59696.56;5026238;28;8844;-67
2022/05/27 04:45:47;;;;;;;;;11.00;8.00;;;;;-147.17;100.00;59696.56;5029109;28;8805;-67
2022/05/27 04:48:13;;;;;;;;;8.00;8.00;;;;;-147.17;100.00;59696.56;5030579;28;9564;-66
2022/05/27 04:50:39;;;;;;;;;6.67;6.67;;;;;-147.17;100.00;59696.56;5004733;28;8840;-68
2022/05/27 04:53:05;;;;;;;;;8.50;7.75;;;;;-147.17;100.00;59696.56;5029589;28;9527;-68
2022/05/27 04:55:33;;;;;;;;;7.00;7.00;;;;;-147.17;100.00;59696.56;5031294;28;9743;-66
2022/05/27 04:58:02;;;;;;;;;7.00;7.00;;;;;-147.17;100.00;59696.56;5029878;28;8822;-68
2022/05/27 05:00:43;;;;;;;;;9.67;9.67;;;;;-147.17;100.00;59696.56;5020533;28;9514;-67
2022/05/27 05:03:09;;;;;;;;;9.67;8.67;;;;;-147.17;100.00;59696.56;5041159;28;9572;-67
2022/05/27 05:05:36;;;;;;;;;9.75;9.00;;;;;-147.17;100.00;59696.56;5026154;28;9690;-67
2022/05/27 05:08:01;;;;;;;;;7.33;7.33;;;;;-147.17;100.00;59696.56;5031106;28;9684;-67
2022/05/27 05:10:27;;;;;;;;;8.00;7.00;;;;;-147.17;100.00;59696.56;5036448;28;9439;-67
2022/05/27 05:12:53;;;;;;;;;11.00;9.50;;;;;-147.17;100.00;59696.56;5030723;28;8802;-67
2022/05/27 05:15:20;;;;;;;;;14.50;12.50;;;;;-147.17;100.00;59696.56;5030068;28;8805;-67
2022/05/27 05:17:46;;;;;;;;;10.67;9.67;;;;;-147.17;100.00;59696.56;5030384;28;9623;-67
2022/05/27 05:20:15;;;;;;;;;12.75;12.00;;;;;-147.17;100.00;59696.56;5030404;28;9457;-67
2022/05/27 05:22:40;;;;;;;;;11.25;10.00;;;;;-147.17;100.00;59696.56;5028841;28;8802;-66
2022/05/27 05:25:08;;;;;;;;;11.00;10.25;;;;;-147.17;100.00;59696.56;5031611;28;9684;-68
2022/05/27 05:27:34;;;;;;;;;9.50;9.25;;;;;-147.17;100.00;59696.56;5030373;28;8907;-68
2022/05/27 05:30:00;;;;;;;;;8.33;8.33;;;;;-147.17;100.00;59696.56;5029900;28;9521;-67
2022/05/27 05:32:26;;;;;;;;;9.25;8.75;;;;;-147.17;100.00;59696.56;5027073;28;9573;-67
2022/05/27 05:34:51;;;;;;;;;11.00;9.00;;;;;-147.17;100.00;59696.56;5031419;28;9672;-67
2022/05/27 05:37:17;;;;;;;;;10.25;10.25;;;;;-147.17;100.00;59696.56;5027798;28;8931;-67
2022/05/27 05:39:42;;;;;;;;;11.67;10.00;;;;;-147.17;100.00;59696.56;5030177;28;8825;-67
2022/05/27 05:42:09;;;;;;;;;12.00;11.75;;;;;-147.17;100.00;59696.56;5030148;28;8861;-67
2022/05/27 05:44:34;;;;;;;;;13.50;12.00;;;;;-147.17;100.00;59696.56;5029121;28;8817;-67
2022/05/27 05:47:01;;;;;;;;;10.67;9.33;;;;;-147.17;100.00;59696.56;5028923;28;9773;-67
2022/05/27 05:49:27;;;;;;;;;13.50;12.50;;;;;-147.17;100.00;59696.56;5021555;28;8812;-67
2022/05/27 05:51:55;;;;;;;;;12.00;11.00;;;;;-147.17;100.00;59696.56;5030269;28;9922;-67
2022/05/27 05:54:22;;;;;;;;;13.75;13.00;;;;;-147.17;100.00;59696.56;5029362;28;8844;-67
2022/05/27 05:56:49;;;;;;;;;17.75;14.75;;;;;-147.17;100.00;59696.56;5031157;28;9758;-67
2022/05/27 05:59:15;;;;;;;;;13.75;12.75;;;;;-147.17;100.00;59696.56;5030023;28;9864;-66
2022/05/27 06:01:42;;;;;;;;;12.25;11.75;;;;;-147.17;100.00;59696.56;5028316;28;9683;-68
2022/05/27 06:04:07;;;;;;;;;13.75;12.75;;;;;-147.17;100.00;59696.56;5030806;28;9888;-68
2022/05/27 06:06:33;;;;;;;;;15.75;13.75;;;;;-147.17;100.00;59696.56;5022584;28;10450;-68
2022/05/27 06:08:58;;;;;;;;;15.75;14.25;;;;;-147.17;100.00;59696.56;5011009;28;8825;-67
2022/05/27 06:11:23;;;;;;;;;18.25;17.50;;;;;-147.17;100.00;59696.56;5025393;28;8801;-68
2022/05/27 06:13:49;;;;;;;;;15.50;14.00;;;;;-147.17;100.00;59696.56;5025406;28;8827;-68
2022/05/27 06:16:14;;;;;;;;;16.25;15.25;;;;;-147.17;100.00;59696.56;5024947;28;8826;-68
2022/05/27 06:18:40;;;;;;;;;27.50;26.50;;;;;-147.17;100.00;59696.56;5025957;28;8841;-69
2022/05/27 06:21:05;;;;;;;;;22.00;20.00;;;;;-147.17;100.00;59696.56;5027776;28;8939;-68
2022/05/27 06:23:31;;;;;;;;;17.25;16.75;;;;;-147.17;100.00;59696.56;5022816;28;9585;-68
2022/05/27 06:26:00;;;;;;;;;11.33;11.33;;;;;-147.17;100.00;59696.56;5028997;28;8842;-67
2022/05/27 06:36:40;;;;;;;;;12.33;11.00;;;;;-147.17;100.00;59696.56;5026814;28;9282;-68
2022/05/27 06:39:07;;;;;;;;;7.00;7.00;;;;;-147.17;100.00;59696.56;5025148;28;10272;-69
2022/05/27 06:41:33;;;;;;;;;7.33;6.00;;;;;-147.17;100.00;59696.56;5022620;28;9218;-68
2022/05/27 06:44:00;;;;;;;;;5.33;5.00;;;;;-147.17;100.00;59696.56;5023622;28;9363;-70
2022/05/27 06:46:25;;;;;;;;;5.00;5.00;;;;;-147.17;100.00;59696.56;5025412;28;9160;-68
2022/05/27 06:48:51;;;;;;;;;6.33;5.33;;;;;-147.17;100.00;59696.56;5028531;28;9145;-69
2022/05/27 06:51:18;;;;;;;;;7.67;6.67;;;;;-147.17;100.00;59696.56;5029288;28;8813;-69
2022/05/27 06:53:44;;;;;;;;;5.00;5.00;;;;;-147.17;100.00;59696.56;5028860;28;8817;-68
2022/05/27 06:56:10;;;;;;;;;5.67;5.33;;;;;-147.17;100.00;59696.56;5027790;28;9293;-68
2022/05/27 06:58:37;;;;;;;;;5.00;5.00;;;;;-147.17;100.00;59696.56;5027267;28;11544;-69
2022/05/27 07:01:03;;;;;;;;;5.00;5.00;;;;;-147.17;100.00;59696.56;5024586;28;8838;-69
2022/05/27 07:03:28;;;;;;;;;5.33;5.00;;;;;-147.17;100.00;59696.56;5030152;28;9312;-69
2022/05/27 07:05:54;;;;;;;;;6.00;6.00;;;;;-147.17;100.00;59696.56;5035876;28;9052;-67
2022/05/27 07:08:19;;;;;;;;;6.00;5.00;;;;;-147.17;100.00;59696.56;5028171;28;8859;-69
2022/05/27 07:10:44;;;;;;;;;9.00;9.00;;;;;-147.17;100.00;59696.56;5026348;28;8945;-69
2022/05/27 07:13:10;;;;;;;;;9.33;8.33;;;;;-147.17;100.00;59696.56;5026817;28;8821;-68
2022/05/27 07:15:36;;;;;;;;;9.67;9.33;;;;;-147.17;100.00;59696.56;5027045;28;9579;-68
2022/05/27 07:18:04;;;;;;;;;7.33;7.33;;;;;-147.17;100.00;59696.56;5027671;28;8838;-68
2022/05/27 07:20:30;;;;;;;;;11.00;10.33;;;;;-147.17;100.00;59696.56;5025909;28;8903;-69
2022/05/27 07:22:55;;;;;;;;;11.50;9.00;;;;;-147.17;100.00;59696.56;5026834;28;9552;-69
2022/05/27 07:25:20;;;;;;;;;9.67;9.00;;;;;-147.17;100.00;59696.56;5028011;28;8818;-68
2022/05/27 07:27:46;;;;;;;;;8.00;8.00;;;;;-147.17;100.00;59696.56;5026422;28;9567;-68
2022/05/27 07:30:15;;;;;;;;;23.75;22.50;;;;;-147.17;100.00;59696.56;5036350;28;8835;-67
2022/05/27 07:32:41;;;;;;;;;11.33;10.33;;;;;-147.17;100.00;59696.56;5025385;28;8797;-68
2022/05/27 07:35:08;;;;;;;;;10.33;9.00;;;;;-147.17;100.00;59696.56;5027751;28;9362;-67
2022/05/27 07:37:34;;;;;;;;;12.00;9.67;;;;;-147.17;100.00;59696.56;5049832;28;9375;-68
2022/05/27 07:39:59;;;;;;;;;12.00;11.00;;;;;-147.17;100.00;59696.56;5042463;28;9552;-67
2022/05/27 07:42:25;;;;;;;;;12.67;11.67;;;;;-147.17;100.00;59696.56;5025476;28;8841;-68
2022/05/27 07:44:50;;;;;;;;;10.75;10.50;;;;;-147.17;100.00;59696.56;5027614;28;8834;-69
2022/05/27 07:47:17;;;;;;;;;13.00;12.00;;;;;-147.17;100.00;59696.56;5015229;28;8877;-67
2022/05/27 07:49:42;;;;;;;;;12.33;11.33;;;;;-147.17;100.00;59696.56;5027837;28;8801;-68
2022/05/27 07:52:08;;;;;;;;;15.00;13.00;;;;;-147.17;100.00;59696.56;5027216;28;9382;-68
2022/05/27 07:54:34;;;;;;;;;12.33;11.00;;;;;-147.17;100.00;59696.56;5025662;28;8883;-67
2022/05/27 07:56:59;;;;;;;;;13.67;11.67;;;;;-147.17;100.00;59696.56;5039810;28;8986;-67
2022/05/27 07:59:26;;;;;;;;;15.67;13.33;;;;;-147.17;100.00;59696.56;5025730;28;9371;-68
2022/05/27 08:01:51;;;;;;;;;10.33;10.33;;;;;-147.17;100.00;59696.56;5025736;28;9023;-68
2022/05/27 08:04:17;;;;;;;;;8.00;8.00;;;;;-147.17;100.00;59696.56;5024602;28;10198;-66
2022/05/27 08:06:42;;;;;;;;;10.00;9.00;;;;;-147.17;100.00;59696.56;5017228;28;8872;-66
2022/05/27 08:09:08;;;;;;;;;12.00;10.67;;;;;-147.17;100.00;59696.56;5023925;28;8849;-66
2022/05/27 08:11:34;;;;;;;;;13.00;13.00;;;;;-147.17;100.00;59696.56;5022306;28;8900;-67
2022/05/27 08:14:01;;;;;;;;;11.67;11.33;;;;;-147.17;100.00;59696.56;5022783;28;9521;-66
2022/05/27 08:16:27;;;;;;;;;10.67;10.67;;;;;-147.17;100.00;59696.56;5024932;28;8822;-65
2022/05/27 08:18:53;;;;;;;;;9.33;9.33;;;;;-147.17;100.00;59696.56;5025982;28;9468;-66
2022/05/27 08:21:19;;;;;;;;;6.00;6.00;;;;;-147.17;100.00;59696.56;5026472;28;9459;-68
2022/05/27 08:23:45;;;;;;;;;8.00;8.00;;;;;-147.17;100.00;59696.56;5024266;28;8845;-66
2022/05/27 08:26:11;;;;;;;;;9.33;8.67;;;;;-147.17;100.00;59696.56;5021502;28;8813;-66
2022/05/27 08:28:36;;;;;;;;;8.33;8.33;;;;;-147.17;100.00;59696.56;5023861;28;8987;-66
2022/05/27 08:31:02;;;;;;;;;10.00;9.00;;;;;-147.17;100.00;59696.56;5026205;28;9403;-68
2022/05/27 08:38:01;;;;;;;;;7.00;6.33;;;;;-147.17;100.00;59696.56;5024644;28;8924;-66
2022/05/27 08:39:07;;;;;;;;;8.00;8.00;;;;;-147.17;100.00;59696.56;5028005;28;9370;-66
2022/05/27 08:41:44;;;;;;;;;8.33;7.67;;;;;-147.17;100.00;59696.56;5020268;28;9639;-68
2022/05/27 08:44:23;;;;;;;;;9.00;8.67;;;;;-147.17;100.00;59696.56;5025145;28;9558;-68
2022/05/27 08:47:15;;;;;;;;;7.00;5.00;;;;;-147.17;100.00;59696.56;5023692;28;9155;-66
2022/05/27 08:49:45;;;;;;;;;7.67;7.00;;;;;-147.17;100.00;59696.56;5030697;28;9387;-67
2022/05/27 08:52:29;;;;;;;;;6.67;6.33;;;;;-147.17;100.00;59696.56;5028745;28;9432;-67
2022/05/27 08:55:03;;;;;;;;;7.33;6.67;;;;;-147.17;100.00;59696.56;5018156;28;9297;-66
2022/05/27 09:00:18;;;;;;;;;7.00;7.00;;;;;-147.17;100.00;59696.56;5020450;28;9469;-65
2022/05/27 09:03:04;;;;;;;;;6.00;6.00;;;;;-147.17;100.00;59696.56;5028407;28;9371;-66
2022/05/27 09:05:54;;;;;;;;;10.33;9.67;;;;;-147.17;100.00;59696.56;5024160;28;9538;-66
2022/05/27 09:08:23;;;;;;;;;10.67;9.67;;;;;-147.17;100.00;59696.56;5021795;28;9440;-66
2022/05/27 09:11:34;;;;;;;;;8.00;8.00;;;;;-147.17;100.00;59696.56;5024652;28;9467;-65
2022/05/27 09:14:16;;;;;;;;;10.00;9.00;;;;;-147.17;100.00;59696.56;5025312;28;9208;-65
2022/05/27 09:16:51;;;;;;;;;9.00;7.33;;;;;-147.17;100.00;59696.56;5025156;28;9329;-65
2022/05/27 09:19:30;;;;;;;;;10.33;9.67;;;;;-147.17;100.00;59696.56;5031348;28;9267;-65
2022/05/27 09:22:34;;;;;;;;;7.33;6.67;;;;;-147.17;100.00;59696.56;5031522;28;9375;-66
2022/05/27 09:25:24;;;;;;;;;6.00;6.00;;;;;-147.17;100.00;59696.56;5031336;28;9877;-66
2022/05/27 09:28:03;;;;;;;;;7.00;6.00;;;;;-147.17;100.00;59696.56;5031669;28;9292;-65
2022/05/27 09:30:32;;;;;;;;;6.67;6.33;;;;;-147.17;100.00;59696.56;5028392;28;9292;-65
2022/05/27 09:33:05;;;;;;;;;7.33;7.00;;;;;-147.17;100.00;59696.56;5016583;28;9278;-66
2022/05/27 09:35:30;;;;;;;;;12.33;12.00;;;;;-147.17;100.00;59696.56;5025278;28;9531;-69
2022/05/27 09:38:01;;;;;;;;;9.67;9.00;;;;;-147.17;100.00;59696.56;5025328;28;9505;-66
2022/05/27 09:40:48;;;;;;;;;14.00;13.00;;;;;-147.17;100.00;59696.56;5028309;28;8962;-64
2022/05/27 09:43:15;;;;;;;;;10.67;9.33;;;;;-147.17;100.00;59696.56;5027229;28;9347;-66
2022/05/27 09:45:43;;;;;;;;;8.33;8.00;;;;;-147.17;100.00;59696.56;5026884;28;9291;-65
2022/05/27 09:48:10;;;;;;;;;8.00;7.67;;;;;-147.17;100.00;59696.56;5026819;28;9298;-65
2022/05/27 09:50:42;;;;;;;;;9.33;9.00;;;;;-147.17;100.00;59696.56;5037615;28;9363;-64
2022/05/27 09:53:14;;;;;;;;;5.00;5.00;;;;;-147.17;100.00;59696.56;5030463;28;9430;-64
2022/05/27 09:55:59;;;;;;;;;5.00;5.00;;;;;-147.17;100.00;59696.56;5044647;28;9273;-66
2022/05/27 09:58:28;;;;;;;;;13.00;12.00;;;;;-147.17;100.00;59696.56;5028703;28;9222;-65
2022/05/27 10:00:53;;;;;;;;;5.67;5.33;;;;;-147.17;100.00;59696.56;5032786;28;10337;-64
2022/05/27 10:03:20;;;;;;;;;12.00;11.67;;;;;-147.17;100.00;59696.56;5011904;28;9289;-64
2022/05/27 10:06:08;;;;;;;;;6.00;5.67;;;;;-147.17;100.00;59696.56;5030650;28;8782;-64
2022/05/27 10:08:39;;;;;;;;;9.00;8.33;;;;;-147.17;100.00;59696.56;5030182;28;9249;-65
2022/05/27 10:11:12;;;;;;;;;9.00;8.00;;;;;-147.17;100.00;59696.56;5022951;28;10078;-64
2022/05/27 10:13:41;;;;;;;;;6.00;6.00;;;;;-147.17;100.00;59696.56;5030264;28;9139;-62
2022/05/27 10:16:13;;;;;;;;;66.25;52.75;;;;;-147.17;100.00;59696.56;5030519;28;9120;-64
2022/05/27 10:18:41;;;;;;;;;8.67;7.00;;;;;-147.17;100.00;59696.56;5027966;28;11572;-65
2022/05/27 10:21:17;;;;;;;;;8.00;8.00;;;;;-147.17;100.00;59696.56;5029954;28;9394;-64
2022/05/27 10:23:46;;;;;;;;;8.67;8.33;;;;;-147.17;100.00;59696.56;5027826;28;9307;-65
2022/05/27 10:26:30;;;;;;;;;7.33;6.33;;;;;-147.17;100.00;59696.56;5027181;28;9318;-65
2022/05/27 10:29:06;;;;;;;;;6.33;6.33;;;;;-147.17;100.00;59696.56;5030239;28;9280;-64
2022/05/27 10:31:33;;;;;;;;;6.33;6.33;;;;;-147.17;100.00;59696.56;5026546;28;9057;-64
2022/05/27 10:34:00;;;;;;;;;7.33;7.00;;;;;-147.17;100.00;59696.56;5030138;28;8970;-63
2022/05/27 10:36:55;;;;;;;;;6.00;5.00;;;;;-147.17;100.00;59696.56;5027370;28;9264;-65
2022/05/27 10:39:38;;;;;;;;;6.00;6.00;;;;;-147.17;100.00;59696.56;5043103;28;8976;-66
2022/05/27 10:42:22;;;;;;;;;5.75;5.75;;;;;-147.17;100.00;59696.56;5029600;28;8817;-65
2022/05/27 10:45:15;;;;;;;;;6.00;6.00;;;;;-147.17;100.00;59696.56;5030521;28;8782;-66
2022/05/27 10:48:19;;;;;;;;;8.00;7.00;;;;;-147.17;100.00;59696.56;5030349;28;8821;-64
2022/05/27 10:51:06;;;;;;;;;6.67;6.67;;;;;-147.17;100.00;59696.56;5028361;28;9107;-64
2022/05/27 10:53:57;;;;;;;;;4.00;4.00;;;;;-147.17;100.00;59696.56;5022991;28;10013;-65
2022/05/27 11:03:02;;;;;;;;;6.67;6.67;;;;;-147.17;100.00;59696.56;5025678;28;8968;-65
2022/05/27 11:05:38;;;;;;;;;7.33;7.33;;;;;-147.17;100.00;59696.56;5043677;28;9171;-65
2022/05/27 11:08:23;;;;;;;;;10.00;9.33;;;;;-147.17;100.00;59696.56;5019390;28;9088;-68
2022/05/27 11:11:34;;;;;;;;;5.00;4.00;;;;;-147.17;100.00;59696.56;5022255;28;9281;-66
2022/05/27 11:17:22;;;;;;;;;10.67;9.67;;;;;-147.17;100.00;59696.56;5021849;28;8965;-66
2022/05/27 11:20:24;;;;;;;;;8.67;8.33;;;;;-147.17;100.00;59696.56;5026592;28;9142;-66
2022/05/27 11:23:11;;;;;;;;;6.00;6.00;;;;;-147.17;100.00;59696.56;4945766;28;9129;-66
2022/05/27 11:25:57;;;;;;;;;5.33;5.00;;;;;-147.17;100.00;59696.56;5020212;28;9064;-65
2022/05/27 11:29:07;;;;;;;;;7.00;6.00;;;;;-147.17;100.00;59696.56;5023284;28;8898;-66
2022/05/27 11:32:03;;;;;;;;;8.67;7.33;;;;;-147.17;100.00;59696.56;5024561;28;8905;-65
2022/05/27 11:34:34;;;;;;;;;9.00;8.33;;;;;-147.17;100.00;59696.56;5025574;28;8914;-66
2022/05/27 11:37:25;;;;;;;;;11.00;10.00;;;;;-147.17;100.00;59696.56;5022185;28;9167;-64
2022/05/27 11:40:15;;;;;;;;;9.67;9.00;;;;;-147.17;100.00;59696.56;5039756;28;9405;-67
2022/05/27 11:42:49;;;;;;;;;9.33;8.67;;;;;-147.17;100.00;59696.56;5025777;28;9120;-69
2022/05/27 11:45:31;;;;;;;;;8.67;7.67;;;;;-147.17;100.00;59696.56;5023030;28;9196;-65
2022/05/27 11:50:41;;;;;;;;;8.00;8.00;;;;;-147.17;100.00;59696.56;5049599;23;8855;-66
2022/05/27 11:53:06;;;;;;;;;10.67;10.00;;;;;-147.17;100.00;59696.56;5026121;28;9158;-65
2022/05/27 11:55:43;;;;;;;;;10.33;10.00;;;;;-147.17;100.00;59696.56;5008109;28;9336;-65
2022/05/27 11:58:37;;;;;;;;;9.33;8.33;;;;;-147.17;100.00;59696.56;5287593;22;9693;-65
2022/05/27 12:01:11;;;;;;;;;9.33;7.00;;;;;-147.17;100.00;59696.56;5005365;28;9132;-65
2022/05/27 12:04:05;;;;;;;;;8.67;7.33;;;;;-147.17;100.00;59696.56;5003062;28;9046;-64
2022/05/27 12:06:59;;;;;;;;;9.00;9.00;;;;;-147.17;100.00;59696.56;5003721;28;9201;-64